sensor_id;sensor_type;location;lat;lon;timestamp;temperature;humidity
3788;DHT22;1909;53.046;8.276;2023-02-07T00:00:16;-0.40;99.90
3788;DHT22;1909;53.046;8.276;2023-02-07T00:02:44;-0.50;99.90
3788;DHT22;1909;53.046;8.276;2023-02-07T00:05:11;-0.50;99.90
3788;DHT22;1909;53.046;8.276;2023-02-07T00:07:38;-0.60;99.90
3788;DHT22;1909;53.046;8.276;2023-02-07T00:10:06;-0.70;99.90
3788;DHT22;1909;53.046;8.276;2023-02-07T00:12:33;-0.70;99.90
3788;DHT22;1909;53.046;8.276;2023-02-07T00:15:01;-0.70;99.90
3788;DHT22;1909;53.046;8.276;2023-02-07T00:17:29;-0.70;99.90
3788;DHT22;1909;53.046;8.276;2023-02-07T00:19:55;-0.70;99.90
3788;DHT22;1909;53.046;8.276;2023-02-07T00:22:22;-0.70;99.90
3788;DHT22;1909;53.046;8.276;2023-02-07T00:24:49;-0.70;99.90
3788;DHT22;1909;53.046;8.276;2023-02-07T00:27:16;-0.70;99.90
3788;DHT22;1909;53.046;8.276;2023-02-07T00:29:42;-0.70;99.90
3788;DHT22;1909;53.046;8.276;2023-02-07T00:32:10;-0.60;99.90
3788;DHT22;1909;53.046;8.276;2023-02-07T00:34:37;-0.50;99.90
3788;DHT22;1909;53.046;8.276;2023-02-07T00:37:05;-0.50;99.90
3788;DHT22;1909;53.046;8.276;2023-02-07T00:39:32;-0.50;99.90
3788;DHT22;1909;53.046;8.276;2023-02-07T00:41:59;-0.50;99.90
3788;DHT22;1909;53.046;8.276;2023-02-07T00:44:25;-0.60;99.90
3788;DHT22;1909;53.046;8.276;2023-02-07T00:46:52;-0.70;99.90
3788;DHT22;1909;53.046;8.276;2023-02-07T00:49:20;-0.80;99.90
3788;DHT22;1909;53.046;8.276;2023-02-07T00:51:47;-0.80;99.90
3788;DHT22;1909;53.046;8.276;2023-02-07T00:54:14;-0.90;99.90
3788;DHT22;1909;53.046;8.276;2023-02-07T00:56:41;-1.00;99.90
3788;DHT22;1909;53.046;8.276;2023-02-07T00:59:08;-1.00;99.90
3788;DHT22;1909;53.046;8.276;2023-02-07T01:01:34;-1.00;99.90
3788;DHT22;1909;53.046;8.276;2023-02-07T01:04:01;-1.10;99.90
3788;DHT22;1909;53.046;8.276;2023-02-07T01:06:29;-1.30;99.90
3788;DHT22;1909;53.046;8.276;2023-02-07T01:08:59;-1.30;99.90
3788;DHT22;1909;53.046;8.276;2023-02-07T01:11:26;-1.30;99.90
3788;DHT22;1909;53.046;8.276;2023-02-07T01:13:53;-1.20;99.90
3788;DHT22;1909;53.046;8.276;2023-02-07T01:16:22;-1.20;99.90
3788;DHT22;1909;53.046;8.276;2023-02-07T01:18:49;-1.20;99.90
3788;DHT22;1909;53.046;8.276;2023-02-07T01:21:17;-1.20;99.90
3788;DHT22;1909;53.046;8.276;2023-02-07T01:23:46;-1.20;99.90
3788;DHT22;1909;53.046;8.276;2023-02-07T01:26:12;-1.20;99.90
3788;DHT22;1909;53.046;8.276;2023-02-07T01:28:40;-1.20;99.90
3788;DHT22;1909;53.046;8.276;2023-02-07T01:31:07;-1.30;99.90
3788;DHT22;1909;53.046;8.276;2023-02-07T01:33:35;-1.30;99.90
3788;DHT22;1909;53.046;8.276;2023-02-07T01:36:05;-1.30;99.90
3788;DHT22;1909;53.046;8.276;2023-02-07T01:38:32;-1.40;99.90
3788;DHT22;1909;53.046;8.276;2023-02-07T01:41:01;-1.40;99.90
3788;DHT22;1909;53.046;8.276;2023-02-07T01:43:28;-1.40;99.90
3788;DHT22;1909;53.046;8.276;2023-02-07T01:45:55;-1.40;99.90
3788;DHT22;1909;53.046;8.276;2023-02-07T01:48:24;-1.50;99.90
3788;DHT22;1909;53.046;8.276;2023-02-07T01:50:54;-1.50;99.90
3788;DHT22;1909;53.046;8.276;2023-02-07T01:53:26;-1.60;99.90
3788;DHT22;1909;53.046;8.276;2023-02-07T01:55:56;-1.50;99.90
3788;DHT22;1909;53.046;8.276;2023-02-07T01:58:27;-1.60;99.90
3788;DHT22;1909;53.046;8.276;2023-02-07T02:00:54;-1.70;99.90
3788;DHT22;1909;53.046;8.276;2023-02-07T02:03:21;-1.80;99.90
3788;DHT22;1909;53.046;8.276;2023-02-07T02:05:48;-2.00;99.90
3788;DHT22;1909;53.046;8.276;2023-02-07T02:08:19;-2.10;99.90
3788;DHT22;1909;53.046;8.276;2023-02-07T02:11:08;-2.00;99.90
3788;DHT22;1909;53.046;8.276;2023-02-07T02:13:42;-2.00;99.90
3788;DHT22;1909;53.046;8.276;2023-02-07T02:16:17;-1.90;99.90
3788;DHT22;1909;53.046;8.276;2023-02-07T02:19:07;-1.90;99.90
3788;DHT22;1909;53.046;8.276;2023-02-07T02:22:04;-1.80;99.90
3788;DHT22;1909;53.046;8.276;2023-02-07T02:25:03;-1.80;99.90
3788;DHT22;1909;53.046;8.276;2023-02-07T02:27:56;-1.80;99.90
3788;DHT22;1909;53.046;8.276;2023-02-07T02:31:07;-1.90;99.90
3788;DHT22;1909;53.046;8.276;2023-02-07T02:33:47;-1.80;99.90
3788;DHT22;1909;53.046;8.276;2023-02-07T02:36:21;-1.80;99.90
3788;DHT22;1909;53.046;8.276;2023-02-07T02:38:59;-1.90;99.90
3788;DHT22;1909;53.046;8.276;2023-02-07T02:41:30;-2.10;99.90
3788;DHT22;1909;53.046;8.276;2023-02-07T02:44:03;-2.10;99.90
3788;DHT22;1909;53.046;8.276;2023-02-07T02:46:35;-2.20;99.90
3788;DHT22;1909;53.046;8.276;2023-02-07T02:49:07;-2.20;99.90
3788;DHT22;1909;53.046;8.276;2023-02-07T02:51:35;-2.20;99.90
3788;DHT22;1909;53.046;8.276;2023-02-07T02:54:02;-2.20;99.90
3788;DHT22;1909;53.046;8.276;2023-02-07T02:56:51;-2.10;99.90
3788;DHT22;1909;53.046;8.276;2023-02-07T02:59:50;-2.00;99.90
3788;DHT22;1909;53.046;8.276;2023-02-07T03:02:27;-2.10;99.90
3788;DHT22;1909;53.046;8.276;2023-02-07T03:05:17;-2.10;99.90
3788;DHT22;1909;53.046;8.276;2023-02-07T03:07:57;-2.10;99.90
3788;DHT22;1909;53.046;8.276;2023-02-07T03:10:31;-2.20;99.90
3788;DHT22;1909;53.046;8.276;2023-02-07T03:13:05;-2.30;99.90
3788;DHT22;1909;53.046;8.276;2023-02-07T03:15:44;-2.30;99.90
3788;DHT22;1909;53.046;8.276;2023-02-07T03:18:16;-2.30;99.90
3788;DHT22;1909;53.046;8.276;2023-02-07T03:20:48;-2.30;99.90
3788;DHT22;1909;53.046;8.276;2023-02-07T03:23:18;-2.30;99.90
3788;DHT22;1909;53.046;8.276;2023-02-07T03:25:47;-2.40;99.90
3788;DHT22;1909;53.046;8.276;2023-02-07T03:28:17;-2.50;99.90
3788;DHT22;1909;53.046;8.276;2023-02-07T03:30:45;-2.70;99.90
3788;DHT22;1909;53.046;8.276;2023-02-07T03:33:13;-2.80;99.90
3788;DHT22;1909;53.046;8.276;2023-02-07T03:35:45;-2.70;99.90
3788;DHT22;1909;53.046;8.276;2023-02-07T03:38:15;-2.70;99.90
3788;DHT22;1909;53.046;8.276;2023-02-07T03:40:44;-2.90;99.90
3788;DHT22;1909;53.046;8.276;2023-02-07T03:43:14;-2.80;99.90
3788;DHT22;1909;53.046;8.276;2023-02-07T03:45:42;-2.90;99.90
3788;DHT22;1909;53.046;8.276;2023-02-07T03:48:09;-2.80;99.90
3788;DHT22;1909;53.046;8.276;2023-02-07T03:50:36;-2.80;99.90
3788;DHT22;1909;53.046;8.276;2023-02-07T03:53:03;-2.70;99.90
3788;DHT22;1909;53.046;8.276;2023-02-07T03:55:31;-2.60;99.90
3788;DHT22;1909;53.046;8.276;2023-02-07T03:57:58;-2.70;99.90
3788;DHT22;1909;53.046;8.276;2023-02-07T04:00:25;-2.70;99.90
3788;DHT22;1909;53.046;8.276;2023-02-07T04:02:52;-2.70;99.90
3788;DHT22;1909;53.046;8.276;2023-02-07T04:05:19;-2.70;99.90
3788;DHT22;1909;53.046;8.276;2023-02-07T04:07:46;-2.70;99.90
3788;DHT22;1909;53.046;8.276;2023-02-07T04:10:13;-2.60;99.90
3788;DHT22;1909;53.046;8.276;2023-02-07T04:12:41;-2.50;99.90
3788;DHT22;1909;53.046;8.276;2023-02-07T04:15:08;-2.60;99.90
3788;DHT22;1909;53.046;8.276;2023-02-07T04:17:35;-2.80;99.90
3788;DHT22;1909;53.046;8.276;2023-02-07T04:20:03;-2.90;99.90
3788;DHT22;1909;53.046;8.276;2023-02-07T04:22:29;-3.00;99.90
3788;DHT22;1909;53.046;8.276;2023-02-07T04:24:56;-3.00;99.90
3788;DHT22;1909;53.046;8.276;2023-02-07T04:27:24;-3.10;99.90
3788;DHT22;1909;53.046;8.276;2023-02-07T04:29:52;-3.20;99.90
3788;DHT22;1909;53.046;8.276;2023-02-07T04:32:18;-3.10;99.90
3788;DHT22;1909;53.046;8.276;2023-02-07T04:34:45;-2.90;99.90
3788;DHT22;1909;53.046;8.276;2023-02-07T04:37:12;-2.80;99.90
3788;DHT22;1909;53.046;8.276;2023-02-07T04:39:39;-2.80;99.90
3788;DHT22;1909;53.046;8.276;2023-02-07T04:42:05;-2.90;99.90
3788;DHT22;1909;53.046;8.276;2023-02-07T04:44:33;-3.10;99.90
3788;DHT22;1909;53.046;8.276;2023-02-07T04:47:01;-3.30;99.90
3788;DHT22;1909;53.046;8.276;2023-02-07T04:49:27;-3.40;99.90
3788;DHT22;1909;53.046;8.276;2023-02-07T04:51:54;-3.30;99.90
3788;DHT22;1909;53.046;8.276;2023-02-07T04:54:21;-3.10;99.90
3788;DHT22;1909;53.046;8.276;2023-02-07T04:56:48;-3.10;99.90
3788;DHT22;1909;53.046;8.276;2023-02-07T04:59:14;-3.20;99.90
3788;DHT22;1909;53.046;8.276;2023-02-07T05:01:41;-3.30;99.90
3788;DHT22;1909;53.046;8.276;2023-02-07T05:04:09;-3.40;99.90
3788;DHT22;1909;53.046;8.276;2023-02-07T05:06:36;-3.30;99.90
3788;DHT22;1909;53.046;8.276;2023-02-07T05:09:02;-3.20;99.90
3788;DHT22;1909;53.046;8.276;2023-02-07T05:11:29;-3.00;99.90
3788;DHT22;1909;53.046;8.276;2023-02-07T05:13:56;-3.00;99.90
3788;DHT22;1909;53.046;8.276;2023-02-07T05:16:22;-3.20;99.90
3788;DHT22;1909;53.046;8.276;2023-02-07T05:18:49;-3.40;99.90
3788;DHT22;1909;53.046;8.276;2023-02-07T05:21:17;-3.40;99.90
3788;DHT22;1909;53.046;8.276;2023-02-07T05:23:44;-3.30;99.90
3788;DHT22;1909;53.046;8.276;2023-02-07T05:26:11;-3.10;99.90
3788;DHT22;1909;53.046;8.276;2023-02-07T05:28:37;-3.00;99.90
3788;DHT22;1909;53.046;8.276;2023-02-07T05:31:04;-2.90;99.90
3788;DHT22;1909;53.046;8.276;2023-02-07T05:33:31;-3.00;99.90
3788;DHT22;1909;53.046;8.276;2023-02-07T05:35:59;-3.00;99.90
3788;DHT22;1909;53.046;8.276;2023-02-07T05:38:27;-3.20;99.90
3788;DHT22;1909;53.046;8.276;2023-02-07T05:40:54;-3.30;99.90
3788;DHT22;1909;53.046;8.276;2023-02-07T05:43:20;-3.20;99.90
3788;DHT22;1909;53.046;8.276;2023-02-07T05:45:47;-3.10;99.90
3788;DHT22;1909;53.046;8.276;2023-02-07T05:48:14;-3.20;99.90
3788;DHT22;1909;53.046;8.276;2023-02-07T05:50:41;-3.20;99.90
3788;DHT22;1909;53.046;8.276;2023-02-07T05:53:08;-3.30;99.90
3788;DHT22;1909;53.046;8.276;2023-02-07T05:55:37;-3.40;99.90
3788;DHT22;1909;53.046;8.276;2023-02-07T05:58:03;-3.50;99.90
3788;DHT22;1909;53.046;8.276;2023-02-07T06:00:30;-3.60;99.90
3788;DHT22;1909;53.046;8.276;2023-02-07T06:02:57;-3.60;99.90
3788;DHT22;1909;53.046;8.276;2023-02-07T06:05:24;-3.50;99.90
3788;DHT22;1909;53.046;8.276;2023-02-07T06:07:55;-3.50;99.90
3788;DHT22;1909;53.046;8.276;2023-02-07T06:10:22;-3.50;99.90
3788;DHT22;1909;53.046;8.276;2023-02-07T06:12:50;-3.50;99.90
3788;DHT22;1909;53.046;8.276;2023-02-07T06:15:17;-3.60;99.90
3788;DHT22;1909;53.046;8.276;2023-02-07T06:17:44;-3.70;99.90
3788;DHT22;1909;53.046;8.276;2023-02-07T06:20:11;-3.70;99.90
3788;DHT22;1909;53.046;8.276;2023-02-07T06:22:38;-3.70;99.90
3788;DHT22;1909;53.046;8.276;2023-02-07T06:25:05;-3.80;99.90
3788;DHT22;1909;53.046;8.276;2023-02-07T06:27:36;-3.90;99.90
3788;DHT22;1909;53.046;8.276;2023-02-07T06:30:05;-3.90;99.90
3788;DHT22;1909;53.046;8.276;2023-02-07T06:32:33;-3.80;99.90
3788;DHT22;1909;53.046;8.276;2023-02-07T06:35:00;-3.70;99.90
3788;DHT22;1909;53.046;8.276;2023-02-07T06:37:26;-3.60;99.90
3788;DHT22;1909;53.046;8.276;2023-02-07T06:39:53;-3.60;99.90
3788;DHT22;1909;53.046;8.276;2023-02-07T06:42:20;-3.70;99.90
3788;DHT22;1909;53.046;8.276;2023-02-07T06:44:47;-3.70;99.90
3788;DHT22;1909;53.046;8.276;2023-02-07T06:47:15;-3.70;99.90
3788;DHT22;1909;53.046;8.276;2023-02-07T06:49:44;-3.60;99.90
3788;DHT22;1909;53.046;8.276;2023-02-07T06:52:10;-3.50;99.90
3788;DHT22;1909;53.046;8.276;2023-02-07T06:54:37;-3.40;99.90
3788;DHT22;1909;53.046;8.276;2023-02-07T06:57:04;-3.40;99.90
3788;DHT22;1909;53.046;8.276;2023-02-07T06:59:31;-3.40;99.90
3788;DHT22;1909;53.046;8.276;2023-02-07T07:01:57;-3.50;99.90
3788;DHT22;1909;53.046;8.276;2023-02-07T07:04:26;-3.60;99.90
3788;DHT22;1909;53.046;8.276;2023-02-07T07:06:53;-3.70;99.90
3788;DHT22;1909;53.046;8.276;2023-02-07T07:09:19;-3.70;99.90
3788;DHT22;1909;53.046;8.276;2023-02-07T07:11:46;-3.60;99.90
3788;DHT22;1909;53.046;8.276;2023-02-07T07:14:13;-3.60;99.90
3788;DHT22;1909;53.046;8.276;2023-02-07T07:16:39;-3.70;99.90
3788;DHT22;1909;53.046;8.276;2023-02-07T07:19:06;-3.70;99.90
3788;DHT22;1909;53.046;8.276;2023-02-07T07:21:34;-3.60;99.90
3788;DHT22;1909;53.046;8.276;2023-02-07T07:24:01;-3.50;99.90
3788;DHT22;1909;53.046;8.276;2023-02-07T07:26:28;-3.40;99.90
3788;DHT22;1909;53.046;8.276;2023-02-07T07:28:54;-3.30;99.90
3788;DHT22;1909;53.046;8.276;2023-02-07T07:31:24;-3.30;99.90
3788;DHT22;1909;53.046;8.276;2023-02-07T07:33:55;-3.10;99.90
3788;DHT22;1909;53.046;8.276;2023-02-07T07:36:22;-3.10;99.90
3788;DHT22;1909;53.046;8.276;2023-02-07T07:38:50;-3.10;99.90
3788;DHT22;1909;53.046;8.276;2023-02-07T07:41:16;-3.10;99.90
3788;DHT22;1909;53.046;8.276;2023-02-07T07:43:43;-3.00;99.90
3788;DHT22;1909;53.046;8.276;2023-02-07T07:46:10;-2.90;99.90
3788;DHT22;1909;53.046;8.276;2023-02-07T07:48:36;-2.90;99.90
3788;DHT22;1909;53.046;8.276;2023-02-07T07:51:03;-2.80;99.90
3788;DHT22;1909;53.046;8.276;2023-02-07T07:53:30;-2.70;99.90
3788;DHT22;1909;53.046;8.276;2023-02-07T07:55:58;-2.60;99.90
3788;DHT22;1909;53.046;8.276;2023-02-07T07:58:26;-2.50;99.90
3788;DHT22;1909;53.046;8.276;2023-02-07T08:00:53;-2.50;99.90
3788;DHT22;1909;53.046;8.276;2023-02-07T08:03:20;-2.50;99.90
3788;DHT22;1909;53.046;8.276;2023-02-07T08:05:48;-2.60;99.90
3788;DHT22;1909;53.046;8.276;2023-02-07T08:08:15;-2.70;99.90
3788;DHT22;1909;53.046;8.276;2023-02-07T08:10:43;-2.80;99.90
3788;DHT22;1909;53.046;8.276;2023-02-07T08:13:11;-2.70;99.90
3788;DHT22;1909;53.046;8.276;2023-02-07T08:15:38;-2.60;99.90
3788;DHT22;1909;53.046;8.276;2023-02-07T08:18:05;-2.50;99.90
3788;DHT22;1909;53.046;8.276;2023-02-07T08:20:31;-2.40;99.90
3788;DHT22;1909;53.046;8.276;2023-02-07T08:22:58;-2.30;99.90
3788;DHT22;1909;53.046;8.276;2023-02-07T08:25:25;-2.40;99.90
3788;DHT22;1909;53.046;8.276;2023-02-07T08:27:52;-2.40;99.90
3788;DHT22;1909;53.046;8.276;2023-02-07T08:30:21;-2.20;99.90
3788;DHT22;1909;53.046;8.276;2023-02-07T08:32:47;-2.10;99.90
3788;DHT22;1909;53.046;8.276;2023-02-07T08:35:16;-1.90;99.90
3788;DHT22;1909;53.046;8.276;2023-02-07T08:37:43;-1.70;99.90
3788;DHT22;1909;53.046;8.276;2023-02-07T08:40:11;-1.60;99.90
3788;DHT22;1909;53.046;8.276;2023-02-07T08:42:38;-1.60;99.90
3788;DHT22;1909;53.046;8.276;2023-02-07T08:45:05;-1.60;99.90
3788;DHT22;1909;53.046;8.276;2023-02-07T08:47:34;-1.50;99.90
3788;DHT22;1909;53.046;8.276;2023-02-07T08:50:00;-1.40;99.90
3788;DHT22;1909;53.046;8.276;2023-02-07T08:52:27;-1.20;99.90
3788;DHT22;1909;53.046;8.276;2023-02-07T08:54:54;-1.10;99.90
3788;DHT22;1909;53.046;8.276;2023-02-07T08:57:21;-0.90;99.90
3788;DHT22;1909;53.046;8.276;2023-02-07T08:59:50;-0.80;99.90
3788;DHT22;1909;53.046;8.276;2023-02-07T09:02:17;-0.70;99.90
3788;DHT22;1909;53.046;8.276;2023-02-07T09:04:45;-0.70;99.90
3788;DHT22;1909;53.046;8.276;2023-02-07T09:07:12;-0.60;99.90
3788;DHT22;1909;53.046;8.276;2023-02-07T09:09:39;-0.50;99.90
3788;DHT22;1909;53.046;8.276;2023-02-07T09:12:06;-0.50;99.90
3788;DHT22;1909;53.046;8.276;2023-02-07T09:14:34;-0.50;99.90
3788;DHT22;1909;53.046;8.276;2023-02-07T09:17:00;-0.40;99.90
3788;DHT22;1909;53.046;8.276;2023-02-07T09:19:27;-0.30;99.90
3788;DHT22;1909;53.046;8.276;2023-02-07T09:21:55;-0.30;99.90
3788;DHT22;1909;53.046;8.276;2023-02-07T09:24:22;-0.20;99.90
3788;DHT22;1909;53.046;8.276;2023-02-07T09:26:49;-0.20;99.90
3788;DHT22;1909;53.046;8.276;2023-02-07T09:29:16;-0.10;99.90
3788;DHT22;1909;53.046;8.276;2023-02-07T09:31:43;0.00;99.90
3788;DHT22;1909;53.046;8.276;2023-02-07T09:34:10;0.10;99.90
3788;DHT22;1909;53.046;8.276;2023-02-07T09:36:37;0.20;99.90
3788;DHT22;1909;53.046;8.276;2023-02-07T09:39:05;0.20;99.90
3788;DHT22;1909;53.046;8.276;2023-02-07T09:41:38;0.20;99.90
3788;DHT22;1909;53.046;8.276;2023-02-07T09:44:13;0.20;99.90
3788;DHT22;1909;53.046;8.276;2023-02-07T09:46:46;0.30;99.90
3788;DHT22;1909;53.046;8.276;2023-02-07T09:49:28;0.40;99.90
3788;DHT22;1909;53.046;8.276;2023-02-07T09:51:56;0.50;99.90
3788;DHT22;1909;53.046;8.276;2023-02-07T09:54:29;0.40;99.90
3788;DHT22;1909;53.046;8.276;2023-02-07T09:57:01;0.40;99.90
3788;DHT22;1909;53.046;8.276;2023-02-07T09:59:40;0.40;99.90
3788;DHT22;1909;53.046;8.276;2023-02-07T10:02:16;0.40;99.90
3788;DHT22;1909;53.046;8.276;2023-02-07T10:04:45;0.50;99.90
3788;DHT22;1909;53.046;8.276;2023-02-07T10:07:13;0.50;99.90
3788;DHT22;1909;53.046;8.276;2023-02-07T10:09:43;0.60;99.90
3788;DHT22;1909;53.046;8.276;2023-02-07T10:15:13;0.80;99.90
3788;DHT22;1909;53.046;8.276;2023-02-07T10:17:53;0.90;99.90
3788;DHT22;1909;53.046;8.276;2023-02-07T10:20:31;0.90;99.90
3788;DHT22;1909;53.046;8.276;2023-02-07T10:23:08;0.90;99.90
3788;DHT22;1909;53.046;8.276;2023-02-07T10:25:46;0.90;99.90
3788;DHT22;1909;53.046;8.276;2023-02-07T10:28:35;0.90;99.90
3788;DHT22;1909;53.046;8.276;2023-02-07T10:31:12;0.90;99.90
3788;DHT22;1909;53.046;8.276;2023-02-07T10:33:46;1.00;99.90
3788;DHT22;1909;53.046;8.276;2023-02-07T10:36:15;1.00;99.90
3788;DHT22;1909;53.046;8.276;2023-02-07T10:38:46;1.10;99.90
3788;DHT22;1909;53.046;8.276;2023-02-07T10:41:24;1.10;99.90
3788;DHT22;1909;53.046;8.276;2023-02-07T10:43:55;1.10;99.90
3788;DHT22;1909;53.046;8.276;2023-02-07T10:46:22;1.20;99.90
3788;DHT22;1909;53.046;8.276;2023-02-07T10:48:48;1.20;99.90
3788;DHT22;1909;53.046;8.276;2023-02-07T10:51:21;1.30;99.90
3788;DHT22;1909;53.046;8.276;2023-02-07T10:54:04;3.00;99.90
3788;DHT22;1909;53.046;8.276;2023-02-07T10:56:34;1.60;99.90
3788;DHT22;1909;53.046;8.276;2023-02-07T10:59:03;1.60;99.90
3788;DHT22;1909;53.046;8.276;2023-02-07T11:01:31;1.70;99.90
3788;DHT22;1909;53.046;8.276;2023-02-07T11:03:59;1.60;99.90
3788;DHT22;1909;53.046;8.276;2023-02-07T11:06:27;1.60;99.90
3788;DHT22;1909;53.046;8.276;2023-02-07T11:09:19;1.90;99.90
3788;DHT22;1909;53.046;8.276;2023-02-07T11:11:48;1.80;99.90
3788;DHT22;1909;53.046;8.276;2023-02-07T11:14:17;1.90;99.90
3788;DHT22;1909;53.046;8.276;2023-02-07T11:16:45;1.90;99.90
3788;DHT22;1909;53.046;8.276;2023-02-07T11:19:17;2.00;99.90
3788;DHT22;1909;53.046;8.276;2023-02-07T11:21:46;2.00;99.90
3788;DHT22;1909;53.046;8.276;2023-02-07T11:24:16;2.10;99.90
3788;DHT22;1909;53.046;8.276;2023-02-07T11:26:53;2.10;99.90
3788;DHT22;1909;53.046;8.276;2023-02-07T11:29:22;2.20;99.90
3788;DHT22;1909;53.046;8.276;2023-02-07T11:31:51;2.10;99.90
3788;DHT22;1909;53.046;8.276;2023-02-07T11:34:44;2.30;99.90
3788;DHT22;1909;53.046;8.276;2023-02-07T11:37:23;2.40;99.90
3788;DHT22;1909;53.046;8.276;2023-02-07T11:39:53;2.30;99.90
3788;DHT22;1909;53.046;8.276;2023-02-07T11:42:24;2.40;99.90
3788;DHT22;1909;53.046;8.276;2023-02-07T11:44:51;2.50;99.90
3788;DHT22;1909;53.046;8.276;2023-02-07T11:47:20;2.60;99.90
3788;DHT22;1909;53.046;8.276;2023-02-07T11:49:50;2.60;99.90
3788;DHT22;1909;53.046;8.276;2023-02-07T11:52:17;2.60;99.90
3788;DHT22;1909;53.046;8.276;2023-02-07T11:54:50;2.60;99.90
3788;DHT22;1909;53.046;8.276;2023-02-07T11:57:19;2.60;99.90
3788;DHT22;1909;53.046;8.276;2023-02-07T11:59:52;2.60;99.90
3788;DHT22;1909;53.046;8.276;2023-02-07T12:02:24;2.70;99.90
3788;DHT22;1909;53.046;8.276;2023-02-07T12:04:53;2.70;99.90
3788;DHT22;1909;53.046;8.276;2023-02-07T12:07:24;2.80;99.90
3788;DHT22;1909;53.046;8.276;2023-02-07T12:09:53;2.80;99.90
3788;DHT22;1909;53.046;8.276;2023-02-07T12:12:28;2.80;99.90
3788;DHT22;1909;53.046;8.276;2023-02-07T12:15:02;2.90;99.90
3788;DHT22;1909;53.046;8.276;2023-02-07T12:17:36;3.00;99.90
3788;DHT22;1909;53.046;8.276;2023-02-07T12:20:06;3.00;99.90
3788;DHT22;1909;53.046;8.276;2023-02-07T12:22:41;3.00;99.90
3788;DHT22;1909;53.046;8.276;2023-02-07T12:25:17;3.10;99.90
3788;DHT22;1909;53.046;8.276;2023-02-07T12:27:47;3.00;99.90
3788;DHT22;1909;53.046;8.276;2023-02-07T12:30:21;3.00;99.90
3788;DHT22;1909;53.046;8.276;2023-02-07T12:32:54;3.00;99.90
3788;DHT22;1909;53.046;8.276;2023-02-07T12:35:29;3.10;99.90
3788;DHT22;1909;53.046;8.276;2023-02-07T12:38:03;3.10;99.90
3788;DHT22;1909;53.046;8.276;2023-02-07T12:40:34;3.00;99.90
3788;DHT22;1909;53.046;8.276;2023-02-07T12:43:06;3.10;99.90
3788;DHT22;1909;53.046;8.276;2023-02-07T12:45:47;3.20;99.90
3788;DHT22;1909;53.046;8.276;2023-02-07T12:48:24;3.30;99.90
3788;DHT22;1909;53.046;8.276;2023-02-07T12:51:08;3.20;99.90
3788;DHT22;1909;53.046;8.276;2023-02-07T12:53:46;3.20;99.90
3788;DHT22;1909;53.046;8.276;2023-02-07T12:56:29;3.20;99.90
3788;DHT22;1909;53.046;8.276;2023-02-07T12:59:13;3.10;99.90
3788;DHT22;1909;53.046;8.276;2023-02-07T13:01:47;3.20;99.90
3788;DHT22;1909;53.046;8.276;2023-02-07T13:04:38;3.30;99.90
3788;DHT22;1909;53.046;8.276;2023-02-07T13:07:17;3.40;99.90
3788;DHT22;1909;53.046;8.276;2023-02-07T13:09:52;3.60;99.90
3788;DHT22;1909;53.046;8.276;2023-02-07T13:12:24;3.40;99.90
3788;DHT22;1909;53.046;8.276;2023-02-07T13:15:02;3.20;99.90
3788;DHT22;1909;53.046;8.276;2023-02-07T13:17:40;3.20;99.90
3788;DHT22;1909;53.046;8.276;2023-02-07T13:20:26;3.40;99.90
3788;DHT22;1909;53.046;8.276;2023-02-07T13:22:57;3.40;99.90
3788;DHT22;1909;53.046;8.276;2023-02-07T13:25:28;3.20;99.90
3788;DHT22;1909;53.046;8.276;2023-02-07T13:27:59;3.30;99.90
3788;DHT22;1909;53.046;8.276;2023-02-07T13:30:27;3.40;99.90
3788;DHT22;1909;53.046;8.276;2023-02-07T13:32:57;3.50;99.90
3788;DHT22;1909;53.046;8.276;2023-02-07T13:35:28;3.50;99.90
3788;DHT22;1909;53.046;8.276;2023-02-07T13:38:02;3.60;99.90
3788;DHT22;1909;53.046;8.276;2023-02-07T13:40:39;3.60;99.90
3788;DHT22;1909;53.046;8.276;2023-02-07T13:43:15;3.50;99.90
3788;DHT22;1909;53.046;8.276;2023-02-07T13:45:48;3.50;99.90
3788;DHT22;1909;53.046;8.276;2023-02-07T13:48:24;3.50;99.90
3788;DHT22;1909;53.046;8.276;2023-02-07T13:50:59;3.60;99.90
3788;DHT22;1909;53.046;8.276;2023-02-07T13:53:41;3.60;99.90
3788;DHT22;1909;53.046;8.276;2023-02-07T13:56:12;3.60;99.90
3788;DHT22;1909;53.046;8.276;2023-02-07T13:58:53;3.50;99.90
3788;DHT22;1909;53.046;8.276;2023-02-07T14:01:46;3.60;99.90
3788;DHT22;1909;53.046;8.276;2023-02-07T14:04:16;3.60;99.90
3788;DHT22;1909;53.046;8.276;2023-02-07T14:06:59;3.60;99.90
3788;DHT22;1909;53.046;8.276;2023-02-07T14:09:31;3.60;99.90
3788;DHT22;1909;53.046;8.276;2023-02-07T14:12:01;3.50;99.90
3788;DHT22;1909;53.046;8.276;2023-02-07T14:14:29;3.40;99.90
3788;DHT22;1909;53.046;8.276;2023-02-07T14:16:58;3.50;99.90
3788;DHT22;1909;53.046;8.276;2023-02-07T14:19:49;3.50;99.90
3788;DHT22;1909;53.046;8.276;2023-02-07T14:22:18;3.50;99.90
3788;DHT22;1909;53.046;8.276;2023-02-07T14:24:48;3.60;99.90
3788;DHT22;1909;53.046;8.276;2023-02-07T14:27:28;3.70;99.90
3788;DHT22;1909;53.046;8.276;2023-02-07T14:30:20;3.90;99.90
3788;DHT22;1909;53.046;8.276;2023-02-07T14:33:10;3.90;99.90
3788;DHT22;1909;53.046;8.276;2023-02-07T14:35:46;3.60;99.90
3788;DHT22;1909;53.046;8.276;2023-02-07T14:38:31;3.40;99.90
3788;DHT22;1909;53.046;8.276;2023-02-07T14:41:03;3.40;99.90
3788;DHT22;1909;53.046;8.276;2023-02-07T14:43:35;3.40;99.90
3788;DHT22;1909;53.046;8.276;2023-02-07T14:46:10;3.30;99.90
3788;DHT22;1909;53.046;8.276;2023-02-07T14:48:49;3.30;99.90
3788;DHT22;1909;53.046;8.276;2023-02-07T14:51:22;3.40;99.90
3788;DHT22;1909;53.046;8.276;2023-02-07T14:54:04;3.50;99.90
3788;DHT22;1909;53.046;8.276;2023-02-07T14:56:47;3.50;99.90
3788;DHT22;1909;53.046;8.276;2023-02-07T14:59:20;3.20;99.90
3788;DHT22;1909;53.046;8.276;2023-02-07T15:01:49;3.10;99.90
3788;DHT22;1909;53.046;8.276;2023-02-07T15:04:15;3.10;99.90
3788;DHT22;1909;53.046;8.276;2023-02-07T15:06:45;3.10;99.90
3788;DHT22;1909;53.046;8.276;2023-02-07T15:09:24;3.00;99.90
3788;DHT22;1909;53.046;8.276;2023-02-07T15:11:52;3.00;99.90
3788;DHT22;1909;53.046;8.276;2023-02-07T15:14:23;3.10;99.90
3788;DHT22;1909;53.046;8.276;2023-02-07T15:16:52;3.00;99.90
3788;DHT22;1909;53.046;8.276;2023-02-07T15:19:21;3.10;99.90
3788;DHT22;1909;53.046;8.276;2023-02-07T15:21:52;3.00;99.90
3788;DHT22;1909;53.046;8.276;2023-02-07T15:24:25;2.90;99.90
3788;DHT22;1909;53.046;8.276;2023-02-07T15:26:54;2.90;99.90
3788;DHT22;1909;53.046;8.276;2023-02-07T15:29:23;2.90;99.90
3788;DHT22;1909;53.046;8.276;2023-02-07T15:31:49;2.90;99.90
3788;DHT22;1909;53.046;8.276;2023-02-07T15:34:19;2.80;99.90
3788;DHT22;1909;53.046;8.276;2023-02-07T15:36:47;2.80;99.90
3788;DHT22;1909;53.046;8.276;2023-02-07T15:39:17;2.70;99.90
3788;DHT22;1909;53.046;8.276;2023-02-07T15:41:46;2.70;99.90
3788;DHT22;1909;53.046;8.276;2023-02-07T15:44:22;2.60;99.90
3788;DHT22;1909;53.046;8.276;2023-02-07T15:46:51;2.50;99.90
3788;DHT22;1909;53.046;8.276;2023-02-07T15:49:24;2.50;99.90
3788;DHT22;1909;53.046;8.276;2023-02-07T15:51:52;2.50;99.90
3788;DHT22;1909;53.046;8.276;2023-02-07T15:54:22;2.60;99.90
3788;DHT22;1909;53.046;8.276;2023-02-07T15:56:54;2.70;99.90
3788;DHT22;1909;53.046;8.276;2023-02-07T15:59:24;2.60;99.90
3788;DHT22;1909;53.046;8.276;2023-02-07T16:01:55;2.60;99.90
3788;DHT22;1909;53.046;8.276;2023-02-07T16:04:23;2.60;99.90
3788;DHT22;1909;53.046;8.276;2023-02-07T16:06:54;2.60;99.90
3788;DHT22;1909;53.046;8.276;2023-02-07T16:09:35;2.40;99.90
3788;DHT22;1909;53.046;8.276;2023-02-07T16:12:21;2.50;99.90
3788;DHT22;1909;53.046;8.276;2023-02-07T16:14:54;2.40;99.90
3788;DHT22;1909;53.046;8.276;2023-02-07T16:17:22;2.40;99.90
3788;DHT22;1909;53.046;8.276;2023-02-07T16:19:49;2.20;99.90
3788;DHT22;1909;53.046;8.276;2023-02-07T16:22:20;1.90;99.90
3788;DHT22;1909;53.046;8.276;2023-02-07T16:24:53;1.80;99.90
3788;DHT22;1909;53.046;8.276;2023-02-07T16:27:21;1.70;99.90
3788;DHT22;1909;53.046;8.276;2023-02-07T16:29:52;1.80;99.90
3788;DHT22;1909;53.046;8.276;2023-02-07T16:32:19;1.80;99.90
3788;DHT22;1909;53.046;8.276;2023-02-07T16:34:46;1.70;99.90